sensor_id;sensor_type;location;lat;lon;timestamp;pressure;altitude;pressure_sealevel;temperature;humidity
62976;BME280;49071;0.000;0.000;2022-12-07T06:48:25;100183.59;;;16.05;38.94
62976;BME280;49071;0.000;0.000;2022-12-07T06:51:25;100187.41;;;15.98;38.89
62976;BME280;49071;0.000;0.000;2022-12-07T06:54:25;100180.78;;;15.91;38.80
62976;BME280;49071;0.000;0.000;2022-12-07T06:57:26;100173.63;;;15.95;39.00
62976;BME280;49071;0.000;0.000;2022-12-07T07:00:26;100176.81;;;16.01;38.83
62976;BME280;49071;0.000;0.000;2022-12-07T07:03:26;100178.78;;;16.15;38.92
62976;BME280;49071;0.000;0.000;2022-12-07T07:06:27;100183.22;;;16.32;38.64
62976;BME280;49071;0.000;0.000;2022-12-07T07:09:27;100178.66;;;16.55;38.34
62976;BME280;49071;0.000;0.000;2022-12-07T07:12:27;100191.69;;;16.73;38.39
62976;BME280;49071;0.000;0.000;2022-12-07T07:15:27;100178.56;;;16.92;38.36
62976;BME280;49071;0.000;0.000;2022-12-07T07:18:28;100175.09;;;17.09;38.14
62976;BME280;49071;0.000;0.000;2022-12-07T07:21:28;100176.59;;;17.31;37.87
62976;BME280;49071;0.000;0.000;2022-12-07T07:24:28;100173.19;;;17.46;37.05
62976;BME280;49071;0.000;0.000;2022-12-07T07:27:28;100163.13;;;17.54;37.29
62976;BME280;49071;0.000;0.000;2022-12-07T07:30:29;100155.06;;;17.75;37.32
62976;BME280;49071;0.000;0.000;2022-12-07T07:33:29;100152.16;;;17.97;36.89
62976;BME280;49071;0.000;0.000;2022-12-07T07:36:29;100155.97;;;18.07;36.94
62976;BME280;49071;0.000;0.000;2022-12-07T07:39:29;100158.59;;;18.23;36.46
62976;BME280;49071;0.000;0.000;2022-12-07T07:42:29;100153.41;;;18.21;36.44
62976;BME280;49071;0.000;0.000;2022-12-07T07:45:30;100158.66;;;18.21;36.34
62976;BME280;49071;0.000;0.000;2022-12-07T07:48:30;100154.50;;;18.17;36.35
62976;BME280;49071;0.000;0.000;2022-12-07T07:51:30;100158.25;;;18.13;36.52
62976;BME280;49071;0.000;0.000;2022-12-07T07:54:30;100149.03;;;18.06;36.67
62976;BME280;49071;0.000;0.000;2022-12-07T07:57:30;100151.22;;;17.98;36.55
62976;BME280;49071;0.000;0.000;2022-12-07T08:00:31;100156.78;;;17.91;36.85
62976;BME280;49071;0.000;0.000;2022-12-07T08:03:31;100154.75;;;17.81;37.13
62976;BME280;49071;0.000;0.000;2022-12-07T08:06:31;100167.41;;;17.73;36.86
62976;BME280;49071;0.000;0.000;2022-12-07T08:09:31;100163.50;;;17.64;37.10
62976;BME280;49071;0.000;0.000;2022-12-07T08:12:34;100158.72;;;17.55;37.07
62976;BME280;49071;0.000;0.000;2022-12-07T08:15:35;100152.22;;;17.46;37.11
62976;BME280;49071;0.000;0.000;2022-12-07T08:18:37;100147.44;;;17.37;37.37
62976;BME280;49071;0.000;0.000;2022-12-07T08:21:37;100147.09;;;17.27;37.75
62976;BME280;49071;0.000;0.000;2022-12-07T08:24:37;100153.56;;;17.20;37.54
62976;BME280;49071;0.000;0.000;2022-12-07T08:27:38;100140.03;;;17.12;37.65
62976;BME280;49071;0.000;0.000;2022-12-07T08:30:38;100141.28;;;17.05;37.81
62976;BME280;49071;0.000;0.000;2022-12-07T08:33:38;100136.41;;;16.97;37.91
62976;BME280;49071;0.000;0.000;2022-12-07T08:36:38;100140.28;;;16.90;38.00
62976;BME280;49071;0.000;0.000;2022-12-07T08:39:38;100138.88;;;16.83;38.01
62976;BME280;49071;0.000;0.000;2022-12-07T08:42:39;100140.13;;;16.75;38.28
62976;BME280;49071;0.000;0.000;2022-12-07T08:45:40;100147.50;;;16.67;38.38
62976;BME280;49071;0.000;0.000;2022-12-07T08:48:48;100140.78;;;16.62;38.70
62976;BME280;49071;0.000;0.000;2022-12-07T08:51:49;100140.25;;;16.55;38.89
62976;BME280;49071;0.000;0.000;2022-12-07T08:54:50;100142.00;;;16.55;38.74
62976;BME280;49071;0.000;0.000;2022-12-07T08:57:50;100137.69;;;16.53;38.72
62976;BME280;49071;0.000;0.000;2022-12-07T09:00:50;100127.00;;;16.58;38.49
62976;BME280;49071;0.000;0.000;2022-12-07T09:03:51;100130.59;;;16.73;38.53
62976;BME280;49071;0.000;0.000;2022-12-07T09:06:51;100122.19;;;16.85;38.66
62976;BME280;49071;0.000;0.000;2022-12-07T09:09:51;100132.78;;;16.99;38.15
62976;BME280;49071;0.000;0.000;2022-12-07T09:12:52;100118.91;;;17.15;38.36
62976;BME280;49071;0.000;0.000;2022-12-07T09:15:52;100125.13;;;17.30;37.94
62976;BME280;49071;0.000;0.000;2022-12-07T09:18:52;100134.63;;;17.48;37.61
62976;BME280;49071;0.000;0.000;2022-12-07T09:21:52;100134.59;;;17.65;37.80
62976;BME280;49071;0.000;0.000;2022-12-07T09:24:52;100133.44;;;17.87;37.27
62976;BME280;49071;0.000;0.000;2022-12-07T09:27:56;100123.53;;;18.08;37.12
62976;BME280;49071;0.000;0.000;2022-12-07T09:30:57;100127.66;;;18.28;36.77
62976;BME280;49071;0.000;0.000;2022-12-07T09:33:58;100126.31;;;18.36;36.43
62976;BME280;49071;0.000;0.000;2022-12-07T09:37:00;100117.19;;;18.42;36.32
62976;BME280;49071;0.000;0.000;2022-12-07T09:40:00;100121.44;;;18.45;36.39
62976;BME280;49071;0.000;0.000;2022-12-07T09:43:01;100129.44;;;18.43;36.52
62976;BME280;49071;0.000;0.000;2022-12-07T09:46:01;100125.94;;;18.42;36.56
62976;BME280;49071;0.000;0.000;2022-12-07T09:49:01;100126.31;;;18.36;36.57
62976;BME280;49071;0.000;0.000;2022-12-07T09:52:03;100127.03;;;18.38;36.31
62976;BME280;49071;0.000;0.000;2022-12-07T09:55:16;100130.75;;;18.50;36.83
62976;BME280;49071;0.000;0.000;2022-12-07T09:58:20;100126.19;;;18.54;36.71
62976;BME280;49071;0.000;0.000;2022-12-07T10:01:21;100119.53;;;18.62;36.32
62976;BME280;49071;0.000;0.000;2022-12-07T10:04:23;100123.41;;;18.71;36.35
62976;BME280;49071;0.000;0.000;2022-12-07T10:07:24;100125.72;;;18.77;36.21
62976;BME280;49071;0.000;0.000;2022-12-07T10:10:26;100126.19;;;18.84;36.09
62976;BME280;49071;0.000;0.000;2022-12-07T10:13:39;100129.31;;;18.91;36.01
62976;BME280;49071;0.000;0.000;2022-12-07T10:16:40;100133.25;;;18.98;36.10
62976;BME280;49071;0.000;0.000;2022-12-07T10:19:40;100122.22;;;19.07;36.22
62976;BME280;49071;0.000;0.000;2022-12-07T10:23:01;100137.34;;;19.18;35.86
62976;BME280;49071;0.000;0.000;2022-12-07T10:29:21;100140.78;;;19.18;35.66
62976;BME280;49071;0.000;0.000;2022-12-07T10:32:30;100142.00;;;19.13;36.04
62976;BME280;49071;0.000;0.000;2022-12-07T10:35:30;100140.69;;;19.05;35.92
62976;BME280;49071;0.000;0.000;2022-12-07T10:38:31;100149.97;;;18.97;35.89
62976;BME280;49071;0.000;0.000;2022-12-07T10:41:32;100153.13;;;18.87;36.27
62976;BME280;49071;0.000;0.000;2022-12-07T10:44:33;100150.19;;;18.78;36.41
62976;BME280;49071;0.000;0.000;2022-12-07T10:47:35;100149.84;;;18.68;36.47
62976;BME280;49071;0.000;0.000;2022-12-07T10:50:47;100146.91;;;18.58;36.32
62976;BME280;49071;0.000;0.000;2022-12-07T11:00:08;100142.47;;;18.29;36.92
62976;BME280;49071;0.000;0.000;2022-12-07T11:12:47;100139.53;;;18.19;37.22
62976;BME280;49071;0.000;0.000;2022-12-07T11:22:51;100134.69;;;18.43;36.70
62976;BME280;49071;0.000;0.000;2022-12-07T11:26:02;100136.34;;;18.44;36.74
62976;BME280;49071;0.000;0.000;2022-12-07T11:38:50;100141.22;;;18.96;35.83
62976;BME280;49071;0.000;0.000;2022-12-07T11:41:52;100133.28;;;19.12;36.01
62976;BME280;49071;0.000;0.000;2022-12-07T11:44:56;100127.28;;;19.24;35.74
62976;BME280;49071;0.000;0.000;2022-12-07T11:51:00;100129.16;;;19.51;35.50
62976;BME280;49071;0.000;0.000;2022-12-07T11:54:23;100130.00;;;19.51;35.36
62976;BME280;49071;0.000;0.000;2022-12-07T11:57:30;100146.81;;;19.49;35.56
62976;BME280;49071;0.000;0.000;2022-12-07T12:00:32;100148.78;;;19.45;35.63
62976;BME280;49071;0.000;0.000;2022-12-07T12:03:34;100166.72;;;19.39;35.54
62976;BME280;49071;0.000;0.000;2022-12-07T12:06:37;100161.00;;;19.32;35.57
62976;BME280;49071;0.000;0.000;2022-12-07T12:09:44;100165.13;;;19.22;35.79
62976;BME280;49071;0.000;0.000;2022-12-07T12:22:16;100169.44;;;18.78;36.45
62976;BME280;49071;0.000;0.000;2022-12-07T12:25:21;100150.63;;;18.70;36.55
62976;BME280;49071;0.000;0.000;2022-12-07T12:28:24;100172.22;;;18.59;36.79
62976;BME280;49071;0.000;0.000;2022-12-07T12:43:43;100163.75;;;18.24;37.30
62976;BME280;49071;0.000;0.000;2022-12-07T12:53:23;100145.53;;;18.21;37.24
62976;BME280;49071;0.000;0.000;2022-12-07T12:56:30;100143.69;;;18.23;37.18
62976;BME280;49071;0.000;0.000;2022-12-07T12:59:38;100147.81;;;18.27;37.21
62976;BME280;49071;0.000;0.000;2022-12-07T13:02:52;100152.72;;;18.33;37.16
62976;BME280;49071;0.000;0.000;2022-12-07T13:06:35;100152.19;;;18.42;36.69
62976;BME280;49071;0.000;0.000;2022-12-07T13:09:24;100151.59;;;18.53;36.82
62976;BME280;49071;0.000;0.000;2022-12-07T13:12:25;100156.22;;;18.64;36.67
62976;BME280;49071;0.000;0.000;2022-12-07T13:15:33;100155.63;;;18.75;36.26
62976;BME280;49071;0.000;0.000;2022-12-07T13:24:34;100164.75;;;19.14;36.09
62976;BME280;49071;0.000;0.000;2022-12-07T13:27:37;100160.53;;;19.25;35.83
62976;BME280;49071;0.000;0.000;2022-12-07T13:31:00;100163.16;;;19.40;35.78
62976;BME280;49071;0.000;0.000;2022-12-07T13:34:02;100161.66;;;19.50;35.57
62976;BME280;49071;0.000;0.000;2022-12-07T13:37:08;100166.66;;;19.54;35.65
62976;BME280;49071;0.000;0.000;2022-12-07T13:40:17;100165.78;;;19.54;35.17
62976;BME280;49071;0.000;0.000;2022-12-07T13:43:18;100163.56;;;19.48;35.59
62976;BME280;49071;0.000;0.000;2022-12-07T13:46:20;100154.13;;;19.44;35.51
62976;BME280;49071;0.000;0.000;2022-12-07T13:52:24;100159.50;;;19.28;35.78
62976;BME280;49071;0.000;0.000;2022-12-07T13:55:25;100155.72;;;19.18;35.81
62976;BME280;49071;0.000;0.000;2022-12-07T13:58:30;100156.28;;;19.08;36.14
62976;BME280;49071;0.000;0.000;2022-12-07T14:01:31;100153.34;;;18.99;36.22
62976;BME280;49071;0.000;0.000;2022-12-07T14:07:31;100150.03;;;18.81;36.56
62976;BME280;49071;0.000;0.000;2022-12-07T14:13:40;100146.81;;;18.76;36.56
62976;BME280;49071;0.000;0.000;2022-12-07T14:16:54;100154.63;;;18.77;36.67
62976;BME280;49071;0.000;0.000;2022-12-07T14:22:57;100153.59;;;18.80;36.36
62976;BME280;49071;0.000;0.000;2022-12-07T14:26:06;100153.38;;;18.83;36.58
62976;BME280;49071;0.000;0.000;2022-12-07T14:35:20;100148.25;;;18.96;36.08
62976;BME280;49071;0.000;0.000;2022-12-07T14:38:20;100152.13;;;19.04;36.27
62976;BME280;49071;0.000;0.000;2022-12-07T14:41:21;100148.09;;;19.13;36.14
62976;BME280;49071;0.000;0.000;2022-12-07T14:44:40;100150.19;;;19.22;36.06
62976;BME280;49071;0.000;0.000;2022-12-07T14:47:40;100148.63;;;19.34;35.66
62976;BME280;49071;0.000;0.000;2022-12-07T14:50:43;100152.38;;;19.44;35.75
62976;BME280;49071;0.000;0.000;2022-12-07T14:53:46;100146.81;;;19.49;35.80
62976;BME280;49071;0.000;0.000;2022-12-07T14:56:47;100145.88;;;19.50;35.68
62976;BME280;49071;0.000;0.000;2022-12-07T14:59:49;100139.13;;;19.46;35.78
62976;BME280;49071;0.000;0.000;2022-12-07T15:02:49;100138.56;;;19.41;35.64
62976;BME280;49071;0.000;0.000;2022-12-07T15:05:50;100133.03;;;19.31;36.18
62976;BME280;49071;0.000;0.000;2022-12-07T15:08:50;100139.50;;;19.25;35.90
62976;BME280;49071;0.000;0.000;2022-12-07T15:11:50;100133.84;;;19.17;36.20
62976;BME280;49071;0.000;0.000;2022-12-07T15:14:50;100130.94;;;19.07;36.32
62976;BME280;49071;0.000;0.000;2022-12-07T15:17:51;100139.25;;;19.00;36.51
62976;BME280;49071;0.000;0.000;2022-12-07T15:20:51;100133.50;;;18.93;36.33
62976;BME280;49071;0.000;0.000;2022-12-07T15:23:51;100133.63;;;18.92;36.54
62976;BME280;49071;0.000;0.000;2022-12-07T15:26:51;100126.56;;;18.92;36.66
62976;BME280;49071;0.000;0.000;2022-12-07T15:29:52;100135.97;;;18.96;36.43
62976;BME280;49071;0.000;0.000;2022-12-07T15:32:53;100124.25;;;19.02;36.65
62976;BME280;49071;0.000;0.000;2022-12-07T15:35:54;100126.53;;;19.08;36.57
62976;BME280;49071;0.000;0.000;2022-12-07T15:38:55;100119.28;;;19.11;36.32
62976;BME280;49071;0.000;0.000;2022-12-07T15:41:55;100117.13;;;19.18;36.06
62976;BME280;49071;0.000;0.000;2022-12-07T15:44:55;100125.50;;;19.25;36.19
62976;BME280;49071;0.000;0.000;2022-12-07T15:48:05;100128.59;;;19.31;35.98
62976;BME280;49071;0.000;0.000;2022-12-07T15:51:05;100133.38;;;19.39;35.82
62976;BME280;49071;0.000;0.000;2022-12-07T15:54:06;100119.75;;;19.47;35.73
62976;BME280;49071;0.000;0.000;2022-12-07T15:57:06;100113.16;;;19.54;35.70
62976;BME280;49071;0.000;0.000;2022-12-07T16:00:08;100122.28;;;19.63;35.63
62976;BME280;49071;0.000;0.000;2022-12-07T16:03:08;100126.25;;;19.70;35.48
62976;BME280;49071;0.000;0.000;2022-12-07T16:06:09;100133.13;;;19.72;35.52
62976;BME280;49071;0.000;0.000;2022-12-07T16:09:09;100122.78;;;19.69;35.54
62976;BME280;49071;0.000;0.000;2022-12-07T16:12:10;100130.97;;;19.65;35.72
62976;BME280;49071;0.000;0.000;2022-12-07T16:15:10;100152.44;;;19.57;35.60
62976;BME280;49071;0.000;0.000;2022-12-07T16:18:10;100144.19;;;19.49;35.72
62976;BME280;49071;0.000;0.000;2022-12-07T16:21:11;100134.16;;;19.41;36.02
62976;BME280;49071;0.000;0.000;2022-12-07T16:24:11;100138.09;;;19.34;35.95
62976;BME280;49071;0.000;0.000;2022-12-07T16:27:13;100143.91;;;19.25;36.03
62976;BME280;49071;0.000;0.000;2022-12-07T16:30:13;100136.50;;;19.17;36.09
62976;BME280;49071;0.000;0.000;2022-12-07T16:33:14;100125.50;;;19.10;36.16
62976;BME280;49071;0.000;0.000;2022-12-07T16:36:14;100125.69;;;19.07;36.42
62976;BME280;49071;0.000;0.000;2022-12-07T16:39:16;100129.88;;;19.10;36.42
62976;BME280;49071;0.000;0.000;2022-12-07T16:42:18;100127.06;;;19.13;36.26
62976;BME280;49071;0.000;0.000;2022-12-07T16:45:18;100130.56;;;19.14;36.51
62976;BME280;49071;0.000;0.000;2022-12-07T16:48:18;100131.97;;;19.19;36.12
62976;BME280;49071;0.000;0.000;2022-12-07T16:51:18;100133.47;;;19.23;36.37
62976;BME280;49071;0.000;0.000;2022-12-07T16:54:19;100126.63;;;19.35;36.79
62976;BME280;49071;0.000;0.000;2022-12-07T16:57:19;100121.91;;;19.40;36.28
62976;BME280;49071;0.000;0.000;2022-12-07T17:00:19;100125.78;;;19.49;36.32
62976;BME280;49071;0.000;0.000;2022-12-07T17:03:19;100117.63;;;19.68;36.54
62976;BME280;49071;0.000;0.000;2022-12-07T17:06:21;100111.22;;;19.72;36.10
62976;BME280;49071;0.000;0.000;2022-12-07T17:09:22;100111.22;;;19.72;36.69
62976;BME280;49071;0.000;0.000;2022-12-07T17:12:22;100112.25;;;19.69;36.46
62976;BME280;49071;0.000;0.000;2022-12-07T17:15:22;100128.16;;;19.68;36.84
62976;BME280;49071;0.000;0.000;2022-12-07T17:18:23;100133.75;;;19.62;36.54
62976;BME280;49071;0.000;0.000;2022-12-07T17:21:23;100142.22;;;19.52;37.00
62976;BME280;49071;0.000;0.000;2022-12-07T17:24:23;100148.69;;;19.47;36.99
62976;BME280;49071;0.000;0.000;2022-12-07T17:27:24;100154.44;;;19.39;37.28
62976;BME280;49071;0.000;0.000;2022-12-07T17:30:24;100153.28;;;19.29;37.11
62976;BME280;49071;0.000;0.000;2022-12-07T17:33:24;100165.31;;;19.19;37.40
62976;BME280;49071;0.000;0.000;2022-12-07T17:36:25;100161.34;;;19.11;37.67
62976;BME280;49071;0.000;0.000;2022-12-07T17:39:26;100145.94;;;19.05;37.33
62976;BME280;49071;0.000;0.000;2022-12-07T17:42:26;100143.59;;;19.01;37.55
62976;BME280;49071;0.000;0.000;2022-12-07T17:45:36;100140.38;;;18.96;37.86
62976;BME280;49071;0.000;0.000;2022-12-07T17:48:36;100136.84;;;18.97;38.52
62976;BME280;49071;0.000;0.000;2022-12-07T17:51:36;100129.88;;;18.96;38.53
62976;BME280;49071;0.000;0.000;2022-12-07T17:54:55;100134.38;;;18.94;38.63
62976;BME280;49071;0.000;0.000;2022-12-07T17:57:55;100139.72;;;18.92;39.13
62976;BME280;49071;0.000;0.000;2022-12-07T18:00:56;100144.91;;;18.94;39.42
62976;BME280;49071;0.000;0.000;2022-12-07T18:03:56;100139.16;;;18.87;39.18
62976;BME280;49071;0.000;0.000;2022-12-07T18:06:56;100141.03;;;18.85;39.30
62976;BME280;49071;0.000;0.000;2022-12-07T18:09:56;100139.41;;;18.82;39.42
62976;BME280;49071;0.000;0.000;2022-12-07T18:12:56;100140.53;;;18.78;38.97
62976;BME280;49071;0.000;0.000;2022-12-07T18:16:18;100138.19;;;18.74;39.27
62976;BME280;49071;0.000;0.000;2022-12-07T18:19:20;100135.03;;;18.67;38.80
62976;BME280;49071;0.000;0.000;2022-12-07T18:22:20;100123.06;;;18.47;39.35
62976;BME280;49071;0.000;0.000;2022-12-07T18:25:20;100128.94;;;18.36;39.29
62976;BME280;49071;0.000;0.000;2022-12-07T18:28:20;100128.44;;;18.30;39.51
62976;BME280;49071;0.000;0.000;2022-12-07T18:31:20;100127.75;;;18.26;39.31
62976;BME280;49071;0.000;0.000;2022-12-07T18:34:20;100130.63;;;18.22;39.29
62976;BME280;49071;0.000;0.000;2022-12-07T18:37:21;100133.25;;;18.22;39.56
62976;BME280;49071;0.000;0.000;2022-12-07T18:40:26;100133.19;;;18.23;39.33
62976;BME280;49071;0.000;0.000;2022-12-07T18:43:26;100137.31;;;18.27;39.30
62976;BME280;49071;0.000;0.000;2022-12-07T18:46:26;100138.81;;;18.31;39.43
62976;BME280;49071;0.000;0.000;2022-12-07T18:49:26;100140.16;;;18.38;38.92
62976;BME280;49071;0.000;0.000;2022-12-07T18:52:27;100136.63;;;18.39;39.19
62976;BME280;49071;0.000;0.000;2022-12-07T18:55:27;100141.34;;;18.49;38.74
62976;BME280;49071;0.000;0.000;2022-12-07T18:58:28;100143.06;;;18.50;38.41
62976;BME280;49071;0.000;0.000;2022-12-07T19:01:29;100135.94;;;18.66;38.34
62976;BME280;49071;0.000;0.000;2022-12-07T19:04:29;100140.47;;;18.94;38.45
62976;BME280;49071;0.000;0.000;2022-12-07T19:07:29;100142.59;;;19.18;37.94
62976;BME280;49071;0.000;0.000;2022-12-07T19:10:29;100141.16;;;19.26;37.79
62976;BME280;49071;0.000;0.000;2022-12-07T19:13:30;100146.72;;;19.50;37.73
62976;BME280;49071;0.000;0.000;2022-12-07T19:16:30;100145.13;;;19.76;38.50
62976;BME280;49071;0.000;0.000;2022-12-07T19:19:32;100145.06;;;19.78;37.54
62976;BME280;49071;0.000;0.000;2022-12-07T19:22:32;100153.69;;;19.80;38.17
62976;BME280;49071;0.000;0.000;2022-12-07T19:25:33;100153.03;;;19.76;37.87
62976;BME280;49071;0.000;0.000;2022-12-07T19:28:33;100156.31;;;19.80;38.17
62976;BME280;49071;0.000;0.000;2022-12-07T19:31:33;100154.16;;;19.72;38.30
62976;BME280;49071;0.000;0.000;2022-12-07T19:34:35;100165.53;;;19.73;38.44
62976;BME280;49071;0.000;0.000;2022-12-07T19:37:35;100165.81;;;19.68;38.70
62976;BME280;49071;0.000;0.000;2022-12-07T19:40:36;100173.16;;;19.63;39.17
62976;BME280;49071;0.000;0.000;2022-12-07T19:43:36;100168.53;;;19.52;39.16
62976;BME280;49071;0.000;0.000;2022-12-07T19:46:37;100171.34;;;19.49;38.78
62976;BME280;49071;0.000;0.000;2022-12-07T19:49:37;100169.91;;;19.44;38.88
62976;BME280;49071;0.000;0.000;2022-12-07T19:52:37;100179.22;;;19.35;38.65
62976;BME280;49071;0.000;0.000;2022-12-07T19:55:38;100178.56;;;19.31;39.12
62976;BME280;49071;0.000;0.000;2022-12-07T19:58:39;100176.88;;;19.30;39.64
62976;BME280;49071;0.000;0.000;2022-12-07T20:01:39;100169.84;;;19.31;39.40
62976;BME280;49071;0.000;0.000;2022-12-07T20:04:39;100173.97;;;19.35;39.69
62976;BME280;49071;0.000;0.000;2022-12-07T20:07:40;100179.50;;;19.45;39.93
62976;BME280;49071;0.000;0.000;2022-12-07T20:10:40;100172.75;;;19.55;39.40
62976;BME280;49071;0.000;0.000;2022-12-07T20:13:40;100183.81;;;19.46;39.21
62976;BME280;49071;0.000;0.000;2022-12-07T20:16:41;100183.94;;;19.58;39.65
62976;BME280;49071;0.000;0.000;2022-12-07T20:19:44;100181.97;;;19.76;39.69
62976;BME280;49071;0.000;0.000;2022-12-07T20:22:44;100181.03;;;19.92;40.04
62976;BME280;49071;0.000;0.000;2022-12-07T20:25:44;100184.47;;;20.07;39.98
62976;BME280;49071;0.000;0.000;2022-12-07T20:28:45;100173.47;;;20.00;39.38
62976;BME280;49071;0.000;0.000;2022-12-07T20:31:46;100185.25;;;20.09;39.89
62976;BME280;49071;0.000;0.000;2022-12-07T20:34:46;100193.59;;;20.01;39.22
62976;BME280;49071;0.000;0.000;2022-12-07T20:37:47;100188.53;;;19.98;39.13
62976;BME280;49071;0.000;0.000;2022-12-07T20:40:48;100191.47;;;19.79;38.70
62976;BME280;49071;0.000;0.000;2022-12-07T20:43:48;100203.50;;;19.83;39.50
62976;BME280;49071;0.000;0.000;2022-12-07T20:46:48;100200.78;;;19.85;39.44
62976;BME280;49071;0.000;0.000;2022-12-07T20:49:49;100199.72;;;19.87;39.86
62976;BME280;49071;0.000;0.000;2022-12-07T20:52:50;100200.88;;;19.83;39.87
62976;BME280;49071;0.000;0.000;2022-12-07T20:55:50;100206.41;;;19.78;39.86
62976;BME280;49071;0.000;0.000;2022-12-07T20:58:50;100195.09;;;19.62;39.69
62976;BME280;49071;0.000;0.000;2022-12-07T21:01:50;100195.84;;;19.50;39.54
62976;BME280;49071;0.000;0.000;2022-12-07T21:04:50;100193.88;;;19.39;40.00
62976;BME280;49071;0.000;0.000;2022-12-07T21:07:51;100201.47;;;19.29;39.85
62976;BME280;49071;0.000;0.000;2022-12-07T21:10:51;100202.41;;;19.28;39.73
62976;BME280;49071;0.000;0.000;2022-12-07T21:13:51;100209.47;;;19.28;40.12
62976;BME280;49071;0.000;0.000;2022-12-07T21:16:51;100200.63;;;19.29;40.11
62976;BME280;49071;0.000;0.000;2022-12-07T21:19:51;100199.97;;;19.25;39.78
62976;BME280;49071;0.000;0.000;2022-12-07T21:22:51;100204.06;;;19.15;39.86
62976;BME280;49071;0.000;0.000;2022-12-07T21:25:52;100210.47;;;19.11;39.80
62976;BME280;49071;0.000;0.000;2022-12-07T21:28:52;100215.22;;;19.04;39.98
62976;BME280;49071;0.000;0.000;2022-12-07T21:31:52;100213.91;;;18.97;39.86
62976;BME280;49071;0.000;0.000;2022-12-07T21:34:52;100214.50;;;18.86;40.10
